Terminal Aerodrome Forecast
Issued by NWS

Home | Current Version | Previous Version | Text Only | Print | Product List | Glossary On
Versions: 1 2 3 4 5 6 7 8 9 10 11 12
582
FTUS43 KLSX 231736
TAFCPS
TAF
KCPS 231736Z 2318/2418 25007KT P6SM SCT200
     FM240100 32005KT P6SM VCTS SCT060CB SCT200
     FM240500 36005KT P6SM SCT120=

USA.gov is the U.S. government's official web portal to all federal, state and local government web resources and services.